sensor_id;sensor_type;location;lat;lon;timestamp;P1;durP1;ratioP1;P2;durP2;ratioP2
18066;SDS011;9158;51.528;7.192;2023-02-28T00:00:28;5.27;;;4.77;;
18066;SDS011;9158;51.528;7.192;2023-02-28T00:01:00;6.22;;;4.45;;
18066;SDS011;9158;51.528;7.192;2023-02-28T00:01:31;4.10;;;3.70;;
18066;SDS011;9158;51.528;7.192;2023-02-28T00:02:03;7.95;;;4.60;;
18066;SDS011;9158;51.528;7.192;2023-02-28T00:02:35;5.25;;;4.75;;
18066;SDS011;9158;51.528;7.192;2023-02-28T00:03:06;6.07;;;5.28;;
18066;SDS011;9158;51.528;7.192;2023-02-28T00:03:37;5.93;;;4.80;;
18066;SDS011;9158;51.528;7.192;2023-02-28T00:04:08;5.90;;;5.30;;
18066;SDS011;9158;51.528;7.192;2023-02-28T00:04:39;9.25;;;4.88;;
18066;SDS011;9158;51.528;7.192;2023-02-28T00:05:11;6.20;;;4.40;;
18066;SDS011;9158;51.528;7.192;2023-02-28T00:05:45;5.70;;;4.70;;
18066;SDS011;9158;51.528;7.192;2023-02-28T00:06:16;5.07;;;4.57;;
18066;SDS011;9158;51.528;7.192;2023-02-28T00:06:47;7.65;;;4.70;;
18066;SDS011;9158;51.528;7.192;2023-02-28T00:07:18;4.82;;;4.43;;
18066;SDS011;9158;51.528;7.192;2023-02-28T00:07:49;8.05;;;5.45;;
18066;SDS011;9158;51.528;7.192;2023-02-28T00:08:21;11.55;;;5.60;;
18066;SDS011;9158;51.528;7.192;2023-02-28T00:08:52;7.43;;;4.90;;
18066;SDS011;9158;51.528;7.192;2023-02-28T00:09:24;4.90;;;4.40;;
18066;SDS011;9158;51.528;7.192;2023-02-28T00:09:55;8.33;;;4.50;;
18066;SDS011;9158;51.528;7.192;2023-02-28T00:10:26;6.40;;;4.95;;
18066;SDS011;9158;51.528;7.192;2023-02-28T00:11:00;5.85;;;4.65;;
18066;SDS011;9158;51.528;7.192;2023-02-28T00:11:32;5.47;;;4.45;;
18066;SDS011;9158;51.528;7.192;2023-02-28T00:12:06;6.90;;;5.03;;
18066;SDS011;9158;51.528;7.192;2023-02-28T00:12:40;7.25;;;3.78;;
18066;SDS011;9158;51.528;7.192;2023-02-28T00:13:11;4.47;;;4.05;;
18066;SDS011;9158;51.528;7.192;2023-02-28T00:13:44;8.30;;;4.35;;
18066;SDS011;9158;51.528;7.192;2023-02-28T00:14:16;6.70;;;3.70;;
18066;SDS011;9158;51.528;7.192;2023-02-28T00:14:47;8.27;;;4.60;;
18066;SDS011;9158;51.528;7.192;2023-02-28T00:15:18;6.00;;;4.65;;
18066;SDS011;9158;51.528;7.192;2023-02-28T00:15:58;4.75;;;4.25;;
18066;SDS011;9158;51.528;7.192;2023-02-28T00:16:30;6.70;;;4.70;;
18066;SDS011;9158;51.528;7.192;2023-02-28T00:17:02;9.50;;;5.70;;
18066;SDS011;9158;51.528;7.192;2023-02-28T00:17:33;4.97;;;4.45;;
18066;SDS011;9158;51.528;7.192;2023-02-28T00:18:04;7.10;;;5.00;;
18066;SDS011;9158;51.528;7.192;2023-02-28T00:18:36;4.25;;;3.63;;
18066;SDS011;9158;51.528;7.192;2023-02-28T00:19:07;5.45;;;4.15;;
18066;SDS011;9158;51.528;7.192;2023-02-28T00:19:39;6.10;;;4.60;;
18066;SDS011;9158;51.528;7.192;2023-02-28T00:20:10;4.70;;;3.50;;
18066;SDS011;9158;51.528;7.192;2023-02-28T00:20:42;5.97;;;4.25;;
18066;SDS011;9158;51.528;7.192;2023-02-28T00:21:14;4.30;;;3.88;;
18066;SDS011;9158;51.528;7.192;2023-02-28T00:21:46;5.45;;;4.30;;
18066;SDS011;9158;51.528;7.192;2023-02-28T00:22:17;8.00;;;4.83;;
18066;SDS011;9158;51.528;7.192;2023-02-28T00:22:50;5.45;;;4.30;;
18066;SDS011;9158;51.528;7.192;2023-02-28T00:23:22;5.28;;;4.18;;
18066;SDS011;9158;51.528;7.192;2023-02-28T00:23:53;6.20;;;4.30;;
18066;SDS011;9158;51.528;7.192;2023-02-28T00:24:25;6.22;;;3.85;;
18066;SDS011;9158;51.528;7.192;2023-02-28T00:24:56;5.90;;;4.33;;
18066;SDS011;9158;51.528;7.192;2023-02-28T00:25:27;4.80;;;3.40;;
18066;SDS011;9158;51.528;7.192;2023-02-28T00:25:59;7.53;;;5.53;;
18066;SDS011;9158;51.528;7.192;2023-02-28T00:26:30;6.97;;;4.03;;
18066;SDS011;9158;51.528;7.192;2023-02-28T00:27:01;5.43;;;4.80;;
18066;SDS011;9158;51.528;7.192;2023-02-28T00:27:33;7.35;;;4.20;;
18066;SDS011;9158;51.528;7.192;2023-02-28T00:28:08;5.90;;;3.63;;
18066;SDS011;9158;51.528;7.192;2023-02-28T00:28:39;4.67;;;4.20;;
18066;SDS011;9158;51.528;7.192;2023-02-28T00:29:10;7.47;;;4.40;;
18066;SDS011;9158;51.528;7.192;2023-02-28T00:29:42;5.65;;;4.35;;
18066;SDS011;9158;51.528;7.192;2023-02-28T00:30:15;4.65;;;4.25;;
18066;SDS011;9158;51.528;7.192;2023-02-28T00:30:47;6.63;;;3.75;;
18066;SDS011;9158;51.528;7.192;2023-02-28T00:31:18;5.60;;;4.20;;
18066;SDS011;9158;51.528;7.192;2023-02-28T00:31:52;4.25;;;3.70;;
18066;SDS011;9158;51.528;7.192;2023-02-28T00:32:23;5.00;;;3.33;;
18066;SDS011;9158;51.528;7.192;2023-02-28T00:32:53;5.23;;;3.73;;
18066;SDS011;9158;51.528;7.192;2023-02-28T00:33:24;4.77;;;3.60;;
18066;SDS011;9158;51.528;7.192;2023-02-28T00:33:58;4.55;;;3.63;;
18066;SDS011;9158;51.528;7.192;2023-02-28T00:34:29;5.57;;;3.30;;
18066;SDS011;9158;51.528;7.192;2023-02-28T00:35:00;4.32;;;3.83;;
18066;SDS011;9158;51.528;7.192;2023-02-28T00:35:32;5.57;;;3.20;;
18066;SDS011;9158;51.528;7.192;2023-02-28T00:36:04;4.68;;;3.13;;
18066;SDS011;9158;51.528;7.192;2023-02-28T00:36:36;5.72;;;3.42;;
18066;SDS011;9158;51.528;7.192;2023-02-28T00:37:09;4.00;;;3.38;;
18066;SDS011;9158;51.528;7.192;2023-02-28T00:37:42;4.93;;;3.97;;
18066;SDS011;9158;51.528;7.192;2023-02-28T00:38:13;4.13;;;3.38;;
18066;SDS011;9158;51.528;7.192;2023-02-28T00:38:45;3.85;;;3.42;;
18066;SDS011;9158;51.528;7.192;2023-02-28T00:39:16;7.67;;;3.37;;
18066;SDS011;9158;51.528;7.192;2023-02-28T00:39:47;6.72;;;3.97;;
18066;SDS011;9158;51.528;7.192;2023-02-28T00:40:20;3.95;;;3.45;;
18066;SDS011;9158;51.528;7.192;2023-02-28T00:40:51;8.90;;;4.55;;
18066;SDS011;9158;51.528;7.192;2023-02-28T00:41:22;5.40;;;3.80;;
18066;SDS011;9158;51.528;7.192;2023-02-28T00:41:53;5.43;;;3.30;;
18066;SDS011;9158;51.528;7.192;2023-02-28T00:42:25;5.47;;;3.20;;
18066;SDS011;9158;51.528;7.192;2023-02-28T00:42:58;4.50;;;3.50;;
18066;SDS011;9158;51.528;7.192;2023-02-28T00:43:30;3.95;;;2.70;;
18066;SDS011;9158;51.528;7.192;2023-02-28T00:44:03;4.75;;;3.70;;
18066;SDS011;9158;51.528;7.192;2023-02-28T00:44:36;6.22;;;3.40;;
18066;SDS011;9158;51.528;7.192;2023-02-28T00:45:07;10.50;;;3.97;;
18066;SDS011;9158;51.528;7.192;2023-02-28T00:45:41;6.75;;;3.40;;
18066;SDS011;9158;51.528;7.192;2023-02-28T00:46:13;4.10;;;3.63;;
18066;SDS011;9158;51.528;7.192;2023-02-28T00:46:44;5.13;;;3.73;;
18066;SDS011;9158;51.528;7.192;2023-02-28T00:47:16;5.28;;;3.40;;
18066;SDS011;9158;51.528;7.192;2023-02-28T00:47:47;3.33;;;3.03;;
18066;SDS011;9158;51.528;7.192;2023-02-28T00:48:19;5.45;;;3.45;;
18066;SDS011;9158;51.528;7.192;2023-02-28T00:48:51;4.68;;;2.97;;
18066;SDS011;9158;51.528;7.192;2023-02-28T00:49:22;4.33;;;3.30;;
18066;SDS011;9158;51.528;7.192;2023-02-28T00:49:53;4.22;;;3.53;;
18066;SDS011;9158;51.528;7.192;2023-02-28T00:50:25;4.10;;;3.05;;
18066;SDS011;9158;51.528;7.192;2023-02-28T00:50:56;4.43;;;2.90;;
18066;SDS011;9158;51.528;7.192;2023-02-28T00:51:27;5.60;;;3.70;;
18066;SDS011;9158;51.528;7.192;2023-02-28T00:52:01;5.30;;;3.63;;
18066;SDS011;9158;51.528;7.192;2023-02-28T00:52:32;5.55;;;3.40;;
18066;SDS011;9158;51.528;7.192;2023-02-28T00:53:03;4.40;;;2.97;;
18066;SDS011;9158;51.528;7.192;2023-02-28T00:53:35;3.90;;;2.85;;
18066;SDS011;9158;51.528;7.192;2023-02-28T00:54:06;3.93;;;2.73;;
18066;SDS011;9158;51.528;7.192;2023-02-28T00:54:36;6.30;;;4.03;;
18066;SDS011;9158;51.528;7.192;2023-02-28T00:55:09;5.28;;;3.58;;
18066;SDS011;9158;51.528;7.192;2023-02-28T00:55:39;6.50;;;3.20;;
18066;SDS011;9158;51.528;7.192;2023-02-28T00:56:10;3.83;;;3.20;;
18066;SDS011;9158;51.528;7.192;2023-02-28T00:56:42;4.90;;;3.20;;
18066;SDS011;9158;51.528;7.192;2023-02-28T00:57:13;5.50;;;3.00;;
18066;SDS011;9158;51.528;7.192;2023-02-28T00:57:44;3.87;;;3.57;;
18066;SDS011;9158;51.528;7.192;2023-02-28T00:58:17;7.40;;;2.95;;
18066;SDS011;9158;51.528;7.192;2023-02-28T00:58:48;5.63;;;3.30;;
18066;SDS011;9158;51.528;7.192;2023-02-28T00:59:19;5.20;;;3.70;;
18066;SDS011;9158;51.528;7.192;2023-02-28T00:59:51;4.93;;;3.67;;
18066;SDS011;9158;51.528;7.192;2023-02-28T01:00:25;3.53;;;2.90;;
18066;SDS011;9158;51.528;7.192;2023-02-28T01:00:56;5.07;;;2.83;;
18066;SDS011;9158;51.528;7.192;2023-02-28T01:01:27;5.32;;;2.90;;
18066;SDS011;9158;51.528;7.192;2023-02-28T01:01:58;3.30;;;2.73;;
18066;SDS011;9158;51.528;7.192;2023-02-28T01:02:29;3.90;;;2.87;;
18066;SDS011;9158;51.528;7.192;2023-02-28T01:03:01;3.38;;;3.05;;
18066;SDS011;9158;51.528;7.192;2023-02-28T01:03:32;3.30;;;3.00;;
18066;SDS011;9158;51.528;7.192;2023-02-28T01:04:04;4.38;;;3.00;;
18066;SDS011;9158;51.528;7.192;2023-02-28T01:04:35;3.90;;;3.10;;
18066;SDS011;9158;51.528;7.192;2023-02-28T01:05:07;7.22;;;3.55;;
18066;SDS011;9158;51.528;7.192;2023-02-28T01:05:39;3.70;;;3.40;;
18066;SDS011;9158;51.528;7.192;2023-02-28T01:06:11;5.30;;;3.50;;
18066;SDS011;9158;51.528;7.192;2023-02-28T01:06:42;3.20;;;2.90;;
18066;SDS011;9158;51.528;7.192;2023-02-28T01:07:14;4.40;;;3.83;;
18066;SDS011;9158;51.528;7.192;2023-02-28T01:07:45;4.65;;;2.42;;
18066;SDS011;9158;51.528;7.192;2023-02-28T01:08:16;3.23;;;2.93;;
18066;SDS011;9158;51.528;7.192;2023-02-28T01:08:48;6.82;;;3.75;;
18066;SDS011;9158;51.528;7.192;2023-02-28T01:09:19;7.05;;;3.78;;
18066;SDS011;9158;51.528;7.192;2023-02-28T01:09:50;4.40;;;3.20;;
18066;SDS011;9158;51.528;7.192;2023-02-28T01:10:21;3.60;;;3.20;;
18066;SDS011;9158;51.528;7.192;2023-02-28T01:10:53;3.20;;;2.95;;
18066;SDS011;9158;51.528;7.192;2023-02-28T01:11:24;3.08;;;2.50;;
18066;SDS011;9158;51.528;7.192;2023-02-28T01:11:57;6.45;;;3.70;;
18066;SDS011;9158;51.528;7.192;2023-02-28T01:12:28;6.15;;;2.92;;
18066;SDS011;9158;51.528;7.192;2023-02-28T01:12:59;4.30;;;3.20;;
18066;SDS011;9158;51.528;7.192;2023-02-28T01:13:31;4.63;;;3.03;;
18066;SDS011;9158;51.528;7.192;2023-02-28T01:14:03;3.65;;;2.85;;
18066;SDS011;9158;51.528;7.192;2023-02-28T01:14:35;4.40;;;2.75;;
18066;SDS011;9158;51.528;7.192;2023-02-28T01:15:07;4.00;;;2.55;;
18066;SDS011;9158;51.528;7.192;2023-02-28T01:15:43;3.85;;;3.25;;
18066;SDS011;9158;51.528;7.192;2023-02-28T01:16:17;3.88;;;3.25;;
18066;SDS011;9158;51.528;7.192;2023-02-28T01:16:49;4.68;;;3.13;;
18066;SDS011;9158;51.528;7.192;2023-02-28T01:17:21;4.63;;;2.55;;
18066;SDS011;9158;51.528;7.192;2023-02-28T01:17:53;4.93;;;3.20;;
18066;SDS011;9158;51.528;7.192;2023-02-28T01:18:26;5.70;;;3.40;;
18066;SDS011;9158;51.528;7.192;2023-02-28T01:18:57;6.10;;;2.83;;
18066;SDS011;9158;51.528;7.192;2023-02-28T01:19:29;5.75;;;2.78;;
18066;SDS011;9158;51.528;7.192;2023-02-28T01:20:00;3.80;;;3.50;;
18066;SDS011;9158;51.528;7.192;2023-02-28T01:20:31;2.70;;;2.27;;
18066;SDS011;9158;51.528;7.192;2023-02-28T01:21:03;3.35;;;2.65;;
18066;SDS011;9158;51.528;7.192;2023-02-28T01:21:34;7.82;;;2.70;;
18066;SDS011;9158;51.528;7.192;2023-02-28T01:22:06;10.25;;;2.80;;
18066;SDS011;9158;51.528;7.192;2023-02-28T01:22:38;4.75;;;2.83;;
18066;SDS011;9158;51.528;7.192;2023-02-28T01:23:11;5.63;;;3.33;;
18066;SDS011;9158;51.528;7.192;2023-02-28T01:23:42;4.93;;;2.22;;
18066;SDS011;9158;51.528;7.192;2023-02-28T01:24:14;5.32;;;2.75;;
18066;SDS011;9158;51.528;7.192;2023-02-28T01:24:45;3.10;;;2.57;;
18066;SDS011;9158;51.528;7.192;2023-02-28T01:25:16;5.18;;;2.78;;
18066;SDS011;9158;51.528;7.192;2023-02-28T01:25:48;3.65;;;2.92;;
18066;SDS011;9158;51.528;7.192;2023-02-28T01:26:20;3.92;;;2.63;;
18066;SDS011;9158;51.528;7.192;2023-02-28T01:26:52;5.35;;;3.08;;
18066;SDS011;9158;51.528;7.192;2023-02-28T01:27:25;3.65;;;2.60;;
18066;SDS011;9158;51.528;7.192;2023-02-28T01:27:56;3.60;;;2.53;;
18066;SDS011;9158;51.528;7.192;2023-02-28T01:28:27;5.10;;;3.00;;
18066;SDS011;9158;51.528;7.192;2023-02-28T01:29:02;6.45;;;2.40;;
18066;SDS011;9158;51.528;7.192;2023-02-28T01:29:34;4.47;;;3.63;;
18066;SDS011;9158;51.528;7.192;2023-02-28T01:30:05;4.77;;;3.20;;
18066;SDS011;9158;51.528;7.192;2023-02-28T01:30:37;4.75;;;2.45;;
18066;SDS011;9158;51.528;7.192;2023-02-28T01:31:10;3.17;;;2.40;;
18066;SDS011;9158;51.528;7.192;2023-02-28T01:31:42;3.03;;;2.33;;
18066;SDS011;9158;51.528;7.192;2023-02-28T01:32:13;4.25;;;2.80;;
18066;SDS011;9158;51.528;7.192;2023-02-28T01:32:44;3.90;;;3.13;;
18066;SDS011;9158;51.528;7.192;2023-02-28T01:33:15;3.25;;;2.63;;
18066;SDS011;9158;51.528;7.192;2023-02-28T01:33:47;4.03;;;3.13;;
18066;SDS011;9158;51.528;7.192;2023-02-28T01:34:18;5.28;;;2.58;;
18066;SDS011;9158;51.528;7.192;2023-02-28T01:34:49;5.05;;;2.20;;
18066;SDS011;9158;51.528;7.192;2023-02-28T01:35:21;4.95;;;2.63;;
18066;SDS011;9158;51.528;7.192;2023-02-28T01:35:57;2.80;;;2.10;;
18066;SDS011;9158;51.528;7.192;2023-02-28T01:36:28;2.42;;;2.00;;
18066;SDS011;9158;51.528;7.192;2023-02-28T01:37:00;4.70;;;3.20;;
18066;SDS011;9158;51.528;7.192;2023-02-28T01:37:31;3.47;;;3.17;;
18066;SDS011;9158;51.528;7.192;2023-02-28T01:38:02;2.97;;;2.73;;
18066;SDS011;9158;51.528;7.192;2023-02-28T01:38:33;2.50;;;2.00;;
18066;SDS011;9158;51.528;7.192;2023-02-28T01:39:05;2.60;;;2.38;;
18066;SDS011;9158;51.528;7.192;2023-02-28T01:39:37;3.63;;;2.72;;
18066;SDS011;9158;51.528;7.192;2023-02-28T01:40:08;2.92;;;2.33;;
18066;SDS011;9158;51.528;7.192;2023-02-28T01:40:41;3.38;;;2.03;;
18066;SDS011;9158;51.528;7.192;2023-02-28T01:41:14;3.57;;;2.27;;
18066;SDS011;9158;51.528;7.192;2023-02-28T01:41:46;3.05;;;2.60;;
18066;SDS011;9158;51.528;7.192;2023-02-28T01:42:17;6.80;;;2.85;;
18066;SDS011;9158;51.528;7.192;2023-02-28T01:42:49;6.80;;;2.45;;
18066;SDS011;9158;51.528;7.192;2023-02-28T01:43:21;3.00;;;2.67;;
18066;SDS011;9158;51.528;7.192;2023-02-28T01:44:02;4.90;;;2.45;;
18066;SDS011;9158;51.528;7.192;2023-02-28T01:44:57;4.63;;;2.20;;
18066;SDS011;9158;51.528;7.192;2023-02-28T01:45:30;4.25;;;2.75;;
18066;SDS011;9158;51.528;7.192;2023-02-28T01:46:04;3.17;;;2.72;;
18066;SDS011;9158;51.528;7.192;2023-02-28T01:46:36;2.38;;;2.03;;
18066;SDS011;9158;51.528;7.192;2023-02-28T01:47:07;4.30;;;3.07;;
18066;SDS011;9158;51.528;7.192;2023-02-28T01:47:39;3.30;;;2.13;;
18066;SDS011;9158;51.528;7.192;2023-02-28T01:48:12;7.30;;;2.30;;
18066;SDS011;9158;51.528;7.192;2023-02-28T01:48:46;2.72;;;2.25;;
18066;SDS011;9158;51.528;7.192;2023-02-28T01:49:20;2.97;;;2.30;;
18066;SDS011;9158;51.528;7.192;2023-02-28T01:49:51;3.08;;;2.60;;
18066;SDS011;9158;51.528;7.192;2023-02-28T01:50:24;6.00;;;2.55;;
18066;SDS011;9158;51.528;7.192;2023-02-28T01:50:59;3.17;;;2.22;;
18066;SDS011;9158;51.528;7.192;2023-02-28T01:51:37;2.70;;;2.30;;
18066;SDS011;9158;51.528;7.192;2023-02-28T01:52:15;4.40;;;2.72;;
18066;SDS011;9158;51.528;7.192;2023-02-28T01:52:49;3.67;;;2.50;;
18066;SDS011;9158;51.528;7.192;2023-02-28T01:53:21;3.08;;;2.40;;
18066;SDS011;9158;51.528;7.192;2023-02-28T01:53:58;3.70;;;2.20;;
18066;SDS011;9158;51.528;7.192;2023-02-28T01:54:33;4.55;;;2.80;;
18066;SDS011;9158;51.528;7.192;2023-02-28T01:55:05;8.73;;;2.60;;
18066;SDS011;9158;51.528;7.192;2023-02-28T01:55:38;4.18;;;2.97;;
18066;SDS011;9158;51.528;7.192;2023-02-28T01:56:12;3.60;;;2.80;;
18066;SDS011;9158;51.528;7.192;2023-02-28T01:56:51;4.20;;;2.65;;
18066;SDS011;9158;51.528;7.192;2023-02-28T01:57:25;2.58;;;2.38;;
18066;SDS011;9158;51.528;7.192;2023-02-28T01:58:07;3.95;;;2.78;;
18066;SDS011;9158;51.528;7.192;2023-02-28T01:58:39;4.22;;;2.65;;
18066;SDS011;9158;51.528;7.192;2023-02-28T01:59:13;3.25;;;2.00;;
18066;SDS011;9158;51.528;7.192;2023-02-28T01:59:52;4.18;;;2.47;;
18066;SDS011;9158;51.528;7.192;2023-02-28T02:00:28;4.43;;;2.45;;
18066;SDS011;9158;51.528;7.192;2023-02-28T02:01:00;4.18;;;2.60;;
18066;SDS011;9158;51.528;7.192;2023-02-28T02:01:33;3.67;;;2.40;;
18066;SDS011;9158;51.528;7.192;2023-02-28T02:02:05;5.22;;;2.65;;
18066;SDS011;9158;51.528;7.192;2023-02-28T02:02:36;3.63;;;2.35;;
18066;SDS011;9158;51.528;7.192;2023-02-28T02:03:09;3.25;;;2.83;;
18066;SDS011;9158;51.528;7.192;2023-02-28T02:03:43;5.35;;;2.92;;
18066;SDS011;9158;51.528;7.192;2023-02-28T02:04:15;3.10;;;2.83;;
18066;SDS011;9158;51.528;7.192;2023-02-28T02:04:50;3.10;;;2.72;;
18066;SDS011;9158;51.528;7.192;2023-02-28T02:05:24;3.55;;;3.08;;
18066;SDS011;9158;51.528;7.192;2023-02-28T02:05:57;5.50;;;3.38;;
18066;SDS011;9158;51.528;7.192;2023-02-28T02:06:29;4.20;;;2.95;;
18066;SDS011;9158;51.528;7.192;2023-02-28T02:07:03;3.30;;;2.15;;
18066;SDS011;9158;51.528;7.192;2023-02-28T02:07:35;2.55;;;2.22;;
18066;SDS011;9158;51.528;7.192;2023-02-28T02:08:18;2.95;;;2.05;;
18066;SDS011;9158;51.528;7.192;2023-02-28T02:08:51;2.88;;;1.77;;
18066;SDS011;9158;51.528;7.192;2023-02-28T02:09:22;3.72;;;3.40;;
18066;SDS011;9158;51.528;7.192;2023-02-28T02:09:59;2.95;;;2.65;;
18066;SDS011;9158;51.528;7.192;2023-02-28T02:10:32;3.42;;;2.15;;
18066;SDS011;9158;51.528;7.192;2023-02-28T02:11:05;3.45;;;2.33;;
18066;SDS011;9158;51.528;7.192;2023-02-28T02:11:41;4.47;;;2.70;;
18066;SDS011;9158;51.528;7.192;2023-02-28T02:12:17;3.28;;;2.42;;
18066;SDS011;9158;51.528;7.192;2023-02-28T02:13:03;3.47;;;2.40;;
18066;SDS011;9158;51.528;7.192;2023-02-28T02:13:47;3.22;;;2.28;;
18066;SDS011;9158;51.528;7.192;2023-02-28T02:14:36;4.07;;;2.92;;
18066;SDS011;9158;51.528;7.192;2023-02-28T02:15:19;3.80;;;2.20;;
18066;SDS011;9158;51.528;7.192;2023-02-28T02:15:56;3.92;;;3.05;;
18066;SDS011;9158;51.528;7.192;2023-02-28T02:16:36;3.00;;;2.00;;
18066;SDS011;9158;51.528;7.192;2023-02-28T02:17:18;3.90;;;2.45;;
18066;SDS011;9158;51.528;7.192;2023-02-28T02:17:57;2.70;;;2.00;;
18066;SDS011;9158;51.528;7.192;2023-02-28T02:18:33;2.85;;;1.90;;
18066;SDS011;9158;51.528;7.192;2023-02-28T02:19:15;9.98;;;2.67;;
18066;SDS011;9158;51.528;7.192;2023-02-28T02:21:29;4.15;;;2.33;;
18066;SDS011;9158;51.528;7.192;2023-02-28T02:22:30;6.85;;;4.38;;
18066;SDS011;9158;51.528;7.192;2023-02-28T02:25:52;3.47;;;3.10;;
18066;SDS011;9158;51.528;7.192;2023-02-28T02:26:46;8.05;;;2.53;;
18066;SDS011;9158;51.528;7.192;2023-02-28T02:27:39;3.42;;;2.55;;
18066;SDS011;9158;51.528;7.192;2023-02-28T02:28:27;7.43;;;3.08;;
18066;SDS011;9158;51.528;7.192;2023-02-28T02:29:36;2.38;;;2.17;;
18066;SDS011;9158;51.528;7.192;2023-02-28T02:30:32;6.88;;;2.63;;
18066;SDS011;9158;51.528;7.192;2023-02-28T02:31:42;4.93;;;2.53;;
18066;SDS011;9158;51.528;7.192;2023-02-28T02:32:55;9.35;;;5.25;;
18066;SDS011;9158;51.528;7.192;2023-02-28T02:34:54;22.13;;;11.68;;
18066;SDS011;9158;51.528;7.192;2023-02-28T02:35:31;24.58;;;12.43;;
18066;SDS011;9158;51.528;7.192;2023-02-28T02:36:11;22.45;;;11.70;;
18066;SDS011;9158;51.528;7.192;2023-02-28T02:36:48;24.00;;;11.30;;
18066;SDS011;9158;51.528;7.192;2023-02-28T02:37:31;15.15;;;9.65;;
18066;SDS011;9158;51.528;7.192;2023-02-28T02:38:11;26.45;;;12.93;;
18066;SDS011;9158;51.528;7.192;2023-02-28T02:38:50;38.78;;;21.70;;
18066;SDS011;9158;51.528;7.192;2023-02-28T02:39:27;31.92;;;17.02;;
18066;SDS011;9158;51.528;7.192;2023-02-28T02:40:09;33.13;;;15.27;;
18066;SDS011;9158;51.528;7.192;2023-02-28T02:40:46;20.67;;;11.00;;
18066;SDS011;9158;51.528;7.192;2023-02-28T02:41:27;27.92;;;16.75;;
18066;SDS011;9158;51.528;7.192;2023-02-28T02:42:04;25.38;;;15.15;;
18066;SDS011;9158;51.528;7.192;2023-02-28T02:42:48;18.58;;;10.85;;
18066;SDS011;9158;51.528;7.192;2023-02-28T02:43:25;15.00;;;10.10;;
18066;SDS011;9158;51.528;7.192;2023-02-28T02:44:02;22.90;;;12.65;;
18066;SDS011;9158;51.528;7.192;2023-02-28T02:44:42;15.43;;;11.10;;
18066;SDS011;9158;51.528;7.192;2023-02-28T02:45:19;16.83;;;9.35;;
18066;SDS011;9158;51.528;7.192;2023-02-28T02:45:55;20.73;;;11.30;;
18066;SDS011;9158;51.528;7.192;2023-02-28T02:46:30;16.77;;;9.60;;
18066;SDS011;9158;51.528;7.192;2023-02-28T02:47:05;11.35;;;7.68;;
18066;SDS011;9158;51.528;7.192;2023-02-28T02:47:40;11.30;;;6.05;;
18066;SDS011;9158;51.528;7.192;2023-02-28T02:48:14;9.50;;;6.22;;
18066;SDS011;9158;51.528;7.192;2023-02-28T02:48:48;10.65;;;5.30;;
18066;SDS011;9158;51.528;7.192;2023-02-28T02:49:24;8.68;;;5.43;;
18066;SDS011;9158;51.528;7.192;2023-02-28T02:50:01;7.10;;;4.38;;
18066;SDS011;9158;51.528;7.192;2023-02-28T02:50:38;5.10;;;4.20;;
18066;SDS011;9158;51.528;7.192;2023-02-28T02:51:12;7.82;;;5.22;;
18066;SDS011;9158;51.528;7.192;2023-02-28T02:51:46;8.68;;;4.65;;
18066;SDS011;9158;51.528;7.192;2023-02-28T02:52:19;6.97;;;3.90;;
18066;SDS011;9158;51.528;7.192;2023-02-28T02:52:54;9.38;;;5.07;;
18066;SDS011;9158;51.528;7.192;2023-02-28T02:53:34;6.43;;;4.10;;
18066;SDS011;9158;51.528;7.192;2023-02-28T02:54:10;5.07;;;3.42;;
18066;SDS011;9158;51.528;7.192;2023-02-28T02:54:46;5.43;;;3.53;;
18066;SDS011;9158;51.528;7.192;2023-02-28T02:55:23;5.65;;;3.05;;
18066;SDS011;9158;51.528;7.192;2023-02-28T02:55:54;4.72;;;3.45;;
18066;SDS011;9158;51.528;7.192;2023-02-28T02:56:28;4.10;;;2.72;;
18066;SDS011;9158;51.528;7.192;2023-02-28T02:57:05;4.60;;;3.10;;
18066;SDS011;9158;51.528;7.192;2023-02-28T02:57:40;3.38;;;2.53;;
18066;SDS011;9158;51.528;7.192;2023-02-28T02:58:17;6.90;;;3.03;;
18066;SDS011;9158;51.528;7.192;2023-02-28T02:58:51;3.40;;;2.30;;
18066;SDS011;9158;51.528;7.192;2023-02-28T02:59:27;4.10;;;3.05;;
18066;SDS011;9158;51.528;7.192;2023-02-28T03:00:02;3.63;;;2.65;;
18066;SDS011;9158;51.528;7.192;2023-02-28T03:00:39;3.55;;;2.83;;
18066;SDS011;9158;51.528;7.192;2023-02-28T03:01:17;3.38;;;3.08;;
18066;SDS011;9158;51.528;7.192;2023-02-28T03:01:59;3.60;;;2.72;;
18066;SDS011;9158;51.528;7.192;2023-02-28T03:02:32;5.90;;;3.60;;
18066;SDS011;9158;51.528;7.192;2023-02-28T03:03:04;3.67;;;2.50;;
18066;SDS011;9158;51.528;7.192;2023-02-28T03:03:39;4.72;;;3.10;;
18066;SDS011;9158;51.528;7.192;2023-02-28T03:04:12;3.38;;;2.35;;
18066;SDS011;9158;51.528;7.192;2023-02-28T03:04:47;5.43;;;2.50;;
18066;SDS011;9158;51.528;7.192;2023-02-28T03:05:27;2.28;;;1.45;;
18066;SDS011;9158;51.528;7.192;2023-02-28T03:06:04;7.38;;;2.40;;
18066;SDS011;9158;51.528;7.192;2023-02-28T03:06:36;3.67;;;3.08;;
18066;SDS011;9158;51.528;7.192;2023-02-28T03:07:07;2.95;;;2.20;;
18066;SDS011;9158;51.528;7.192;2023-02-28T03:07:38;6.28;;;2.50;;
18066;SDS011;9158;51.528;7.192;2023-02-28T03:08:10;4.50;;;2.58;;
18066;SDS011;9158;51.528;7.192;2023-02-28T03:08:41;5.07;;;2.90;;
18066;SDS011;9158;51.528;7.192;2023-02-28T03:09:12;4.25;;;2.60;;
18066;SDS011;9158;51.528;7.192;2023-02-28T03:09:50;2.38;;;1.85;;
18066;SDS011;9158;51.528;7.192;2023-02-28T03:11:13;2.95;;;1.98;;
18066;SDS011;9158;51.528;7.192;2023-02-28T03:11:48;3.33;;;1.92;;
18066;SDS011;9158;51.528;7.192;2023-02-28T03:12:22;3.05;;;1.90;;
18066;SDS011;9158;51.528;7.192;2023-02-28T03:13:00;5.68;;;3.35;;
18066;SDS011;9158;51.528;7.192;2023-02-28T03:13:54;3.80;;;2.33;;
18066;SDS011;9158;51.528;7.192;2023-02-28T03:14:49;2.13;;;1.88;;
18066;SDS011;9158;51.528;7.192;2023-02-28T03:15:31;5.00;;;2.58;;
18066;SDS011;9158;51.528;7.192;2023-02-28T03:16:24;7.55;;;2.08;;
18066;SDS011;9158;51.528;7.192;2023-02-28T03:17:14;3.95;;;1.90;;
18066;SDS011;9158;51.528;7.192;2023-02-28T03:18:01;3.10;;;1.90;;
18066;SDS011;9158;51.528;7.192;2023-02-28T03:18:36;3.20;;;2.28;;
18066;SDS011;9158;51.528;7.192;2023-02-28T03:19:24;2.92;;;2.17;;
18066;SDS011;9158;51.528;7.192;2023-02-28T03:20:07;3.45;;;2.50;;
18066;SDS011;9158;51.528;7.192;2023-02-28T03:20:48;3.25;;;2.15;;
18066;SDS011;9158;51.528;7.192;2023-02-28T03:21:31;2.22;;;2.00;;
18066;SDS011;9158;51.528;7.192;2023-02-28T03:22:10;3.42;;;1.85;;
18066;SDS011;9158;51.528;7.192;2023-02-28T03:22:51;1.75;;;1.65;;
18066;SDS011;9158;51.528;7.192;2023-02-28T03:23:28;5.13;;;2.53;;
18066;SDS011;9158;51.528;7.192;2023-02-28T03:24:08;3.15;;;2.20;;
18066;SDS011;9158;51.528;7.192;2023-02-28T03:24:43;1.90;;;1.80;;
18066;SDS011;9158;51.528;7.192;2023-02-28T03:25:25;3.20;;;2.20;;
18066;SDS011;9158;51.528;7.192;2023-02-28T03:26:02;4.15;;;2.08;;
18066;SDS011;9158;51.528;7.192;2023-02-28T03:26:38;3.13;;;1.92;;
18066;SDS011;9158;51.528;7.192;2023-02-28T03:27:15;2.35;;;1.58;;
18066;SDS011;9158;51.528;7.192;2023-02-28T03:27:54;2.75;;;2.05;;
18066;SDS011;9158;51.528;7.192;2023-02-28T03:28:33;3.90;;;2.58;;
18066;SDS011;9158;51.528;7.192;2023-02-28T03:29:10;4.45;;;2.28;;
18066;SDS011;9158;51.528;7.192;2023-02-28T03:29:47;2.72;;;1.70;;
18066;SDS011;9158;51.528;7.192;2023-02-28T03:30:24;2.38;;;1.90;;
18066;SDS011;9158;51.528;7.192;2023-02-28T03:31:00;5.93;;;1.95;;
18066;SDS011;9158;51.528;7.192;2023-02-28T03:31:39;2.85;;;2.08;;
18066;SDS011;9158;51.528;7.192;2023-02-28T03:32:17;2.00;;;1.90;;
18066;SDS011;9158;51.528;7.192;2023-02-28T03:32:53;3.50;;;2.47;;
18066;SDS011;9158;51.528;7.192;2023-02-28T03:33:28;2.95;;;2.50;;
18066;SDS011;9158;51.528;7.192;2023-02-28T03:34:05;2.58;;;1.60;;
18066;SDS011;9158;51.528;7.192;2023-02-28T03:34:41;4.40;;;2.33;;
18066;SDS011;9158;51.528;7.192;2023-02-28T03:35:18;2.85;;;2.25;;
18066;SDS011;9158;51.528;7.192;2023-02-28T03:35:54;2.55;;;1.80;;
18066;SDS011;9158;51.528;7.192;2023-02-28T03:36:28;3.25;;;1.88;;
18066;SDS011;9158;51.528;7.192;2023-02-28T03:37:02;1.80;;;1.70;;
18066;SDS011;9158;51.528;7.192;2023-02-28T03:37:38;2.50;;;2.00;;
18066;SDS011;9158;51.528;7.192;2023-02-28T03:38:14;1.77;;;1.67;;
18066;SDS011;9158;51.528;7.192;2023-02-28T03:38:53;4.78;;;2.20;;